createdAt,value
2019-06-20T00:00:02.348Z,9.93
2019-06-20T00:02:33.009Z,9.30
2019-06-20T00:05:03.232Z,8.63
2019-06-20T00:07:34.630Z,9.93
2019-06-20T00:10:05.074Z,9.07
2019-06-20T00:12:35.238Z,8.47
2019-06-20T00:15:05.282Z,8.93
2019-06-20T00:17:36.759Z,8.17
2019-06-20T00:20:07.590Z,8.00
2019-06-20T00:22:37.974Z,7.97
2019-06-20T00:25:08.393Z,8.37
2019-06-20T00:27:38.586Z,6.43
2019-06-20T00:30:09.858Z,7.00
2019-06-20T00:32:40.496Z,7.47
2019-06-20T00:35:11.089Z,6.00
2019-06-20T00:37:41.381Z,6.97
2019-06-20T00:40:13.263Z,6.47
2019-06-20T00:42:43.415Z,6.77
2019-06-20T00:45:13.904Z,6.73
2019-06-20T00:47:44.243Z,6.30
2019-06-20T00:50:14.830Z,5.50
2019-06-20T00:52:45.243Z,5.70
2019-06-20T00:55:15.488Z,6.90
2019-06-20T00:57:45.780Z,5.77
2019-06-20T01:00:16.594Z,6.53
2019-06-20T01:02:46.836Z,5.70
2019-06-20T01:05:17.715Z,5.75
2019-06-20T01:07:47.912Z,5.27
2019-06-20T01:10:19.463Z,5.13
2019-06-20T01:12:49.829Z,4.33
2019-06-20T01:15:20.447Z,4.63
2019-06-20T01:17:50.654Z,4.70
2019-06-20T01:20:20.851Z,4.80
2019-06-20T01:22:51.031Z,4.10
2019-06-20T01:25:39.236Z,4.60
2019-06-20T01:28:09.669Z,4.23
2019-06-20T01:30:40.017Z,6.10
2019-06-20T01:33:10.598Z,4.58
2019-06-20T01:35:40.874Z,3.77
2019-06-20T01:38:11.092Z,3.10
2019-06-20T01:40:41.524Z,4.50
2019-06-20T01:43:11.702Z,3.03
2019-06-20T01:45:41.934Z,3.33
2019-06-20T01:48:12.094Z,3.40
2019-06-20T01:50:42.434Z,5.07
2019-06-20T01:53:12.558Z,3.60
2019-06-20T01:55:43.427Z,3.60
2019-06-20T01:58:13.940Z,3.83
2019-06-20T02:00:48.114Z,3.73
2019-06-20T02:03:18.678Z,3.40
2019-06-20T02:05:49.030Z,3.77
2019-06-20T02:08:19.620Z,3.33
2019-06-20T02:10:49.841Z,3.47
2019-06-20T02:13:20.039Z,3.40
2019-06-20T02:15:50.132Z,3.87
2019-06-20T02:18:20.772Z,4.17
2019-06-20T02:20:53.490Z,3.47
2019-06-20T02:23:23.934Z,3.47
2019-06-20T02:25:54.338Z,3.63
2019-06-20T02:28:24.786Z,3.70
2019-06-20T02:30:55.247Z,3.57
2019-06-20T02:33:25.604Z,3.67
2019-06-20T02:35:56.006Z,3.60
2019-06-20T02:38:26.116Z,3.77
2019-06-20T02:40:57.610Z,3.50
2019-06-20T02:43:28.425Z,3.37
2019-06-20T02:45:59.905Z,3.37
2019-06-20T02:48:30.118Z,3.60
2019-06-20T02:51:00.818Z,3.90
2019-06-20T02:53:31.018Z,4.20
2019-06-20T02:56:01.225Z,4.20
2019-06-20T02:58:31.461Z,4.50
2019-06-20T03:01:01.900Z,4.03
2019-06-20T03:03:32.195Z,4.67
2019-06-20T03:06:02.433Z,3.83
2019-06-20T03:08:32.836Z,4.27
2019-06-20T03:11:03.016Z,5.43
2019-06-20T03:13:33.239Z,4.97
2019-06-20T03:16:03.422Z,6.10
2019-06-20T03:18:33.780Z,5.60
2019-06-20T03:21:03.967Z,5.78
2019-06-20T03:23:34.074Z,5.17
2019-06-20T03:26:04.302Z,5.63
2019-06-20T03:28:34.517Z,6.10
2019-06-20T03:31:05.196Z,6.03
2019-06-20T03:33:35.797Z,6.13
2019-06-20T03:36:06.287Z,5.40
2019-06-20T03:38:36.339Z,6.33
2019-06-20T03:41:06.560Z,6.47
2019-06-20T03:43:36.831Z,6.40
2019-06-20T03:46:07.101Z,6.00
2019-06-20T03:48:37.376Z,6.03
2019-06-20T03:51:07.581Z,6.13
2019-06-20T03:53:38.870Z,6.80
2019-06-20T03:56:09.289Z,6.30
2019-06-20T03:58:39.496Z,6.90
2019-06-20T04:01:10.258Z,7.12
2019-06-20T04:03:40.504Z,6.03
2019-06-20T04:06:11.030Z,6.75
2019-06-20T04:08:41.218Z,6.43
2019-06-20T04:11:11.515Z,7.10
2019-06-20T04:13:41.891Z,6.40
2019-06-20T04:16:12.146Z,6.70
2019-06-20T04:18:42.334Z,7.03
2019-06-20T04:21:12.520Z,6.87
2019-06-20T04:23:42.606Z,6.83
2019-06-20T04:26:13.160Z,7.40
2019-06-20T04:28:43.356Z,7.27
2019-06-20T04:31:13.931Z,6.83
2019-06-20T04:33:44.206Z,6.90
2019-06-20T04:36:14.511Z,7.27
2019-06-20T04:38:44.769Z,7.67
2019-06-20T04:41:15.156Z,6.80
2019-06-20T04:43:45.416Z,6.97
2019-06-20T04:46:24.118Z,8.37
2019-06-20T04:48:54.235Z,8.50
2019-06-20T04:51:24.402Z,9.00
2019-06-20T04:53:54.679Z,7.13
2019-06-20T04:56:25.120Z,8.63
2019-06-20T04:58:55.473Z,7.40
2019-06-20T05:01:25.687Z,8.40
2019-06-20T05:03:55.907Z,7.57
2019-06-20T05:06:26.503Z,7.60
2019-06-20T05:08:57.771Z,8.30
2019-06-20T05:11:27.877Z,7.23
2019-06-20T05:13:58.303Z,7.80
2019-06-20T05:16:28.823Z,7.30
2019-06-20T05:19:00.099Z,7.20
2019-06-20T05:21:30.589Z,7.50
2019-06-20T05:24:01.010Z,7.17
2019-06-20T05:26:32.435Z,7.63
2019-06-20T05:29:05.399Z,7.97
2019-06-20T05:31:34.787Z,8.50
2019-06-20T05:34:05.177Z,9.80
2019-06-20T05:36:35.433Z,7.57
2019-06-20T05:39:06.861Z,8.70
2019-06-20T05:41:37.323Z,8.30
2019-06-20T05:44:07.579Z,8.07
2019-06-20T05:46:37.725Z,7.97
2019-06-20T05:49:07.917Z,8.20
2019-06-20T05:51:39.811Z,7.90
2019-06-20T05:54:10.832Z,7.40
2019-06-20T05:56:41.011Z,7.00
2019-06-20T05:59:11.902Z,7.97
2019-06-20T06:01:42.113Z,6.83
2019-06-20T06:04:12.931Z,7.00
2019-06-20T06:06:43.048Z,7.53
2019-06-20T06:09:13.772Z,7.15
2019-06-20T06:11:44.000Z,7.63
2019-06-20T06:14:14.695Z,8.08
2019-06-20T06:16:45.789Z,9.10
2019-06-20T06:19:16.707Z,7.78
2019-06-20T06:21:46.901Z,8.17
2019-06-20T06:24:17.075Z,6.73
2019-06-20T06:26:47.372Z,7.90
2019-06-20T06:29:17.543Z,7.23
2019-06-20T06:31:47.833Z,7.10
2019-06-20T06:34:21.177Z,7.17
2019-06-20T06:36:49.945Z,6.73
2019-06-20T06:39:20.144Z,6.77
2019-06-20T06:41:50.328Z,6.40
2019-06-20T06:44:20.670Z,6.00
2019-06-20T06:46:55.367Z,6.77
2019-06-20T06:49:22.929Z,6.37
2019-06-20T06:51:53.362Z,5.77
2019-06-20T06:54:24.625Z,5.60
2019-06-20T06:56:54.825Z,6.43
2019-06-20T06:59:25.052Z,6.50
2019-06-20T07:01:55.267Z,6.33
2019-06-20T07:04:25.855Z,7.30
2019-06-20T07:06:56.069Z,6.20
2019-06-20T07:09:26.286Z,6.17
2019-06-20T07:11:56.633Z,7.00
2019-06-20T07:14:26.917Z,6.30
2019-06-20T07:17:00.494Z,7.13
2019-06-20T07:19:28.985Z,6.37
2019-06-20T07:21:59.227Z,6.27
2019-06-20T07:24:29.400Z,5.67
2019-06-20T07:27:00.793Z,6.17
2019-06-20T07:29:32.009Z,6.50
2019-06-20T07:32:02.294Z,5.77
2019-06-20T07:34:32.480Z,5.67
2019-06-20T07:37:02.950Z,5.40
2019-06-20T07:39:33.435Z,6.23
2019-06-20T07:42:03.837Z,6.60
2019-06-20T07:44:34.000Z,5.90
2019-06-20T07:47:16.963Z,6.93
2019-06-20T07:49:36.597Z,6.70
2019-06-20T07:52:07.136Z,7.20
2019-06-20T07:54:37.346Z,6.60
2019-06-20T07:57:07.526Z,6.80
2019-06-20T07:59:38.026Z,8.03
2019-06-20T08:02:08.555Z,6.80
2019-06-20T08:04:39.963Z,7.40
2019-06-20T08:07:10.534Z,7.10
2019-06-20T08:09:45.181Z,7.83
2019-06-20T08:12:13.184Z,6.33
2019-06-20T08:14:43.463Z,8.10
2019-06-20T08:17:13.682Z,7.90
2019-06-20T08:19:44.215Z,7.73
2019-06-20T08:22:14.361Z,7.10
2019-06-20T08:24:45.631Z,6.90
2019-06-20T08:27:16.090Z,7.27
2019-06-20T08:29:46.213Z,7.67
2019-06-20T08:32:16.347Z,6.60
2019-06-20T08:34:47.692Z,7.17
2019-06-20T08:37:18.517Z,6.80
2019-06-20T08:39:48.677Z,7.87
2019-06-20T08:42:19.164Z,7.05
2019-06-20T08:44:49.362Z,7.37
2019-06-20T08:47:19.628Z,7.03
2019-06-20T08:49:49.822Z,6.73
2019-06-20T08:52:20.313Z,5.73
2019-06-20T08:54:50.682Z,6.50
2019-06-20T08:57:23.333Z,7.07
2019-06-20T08:59:54.228Z,6.83
2019-06-20T09:02:25.502Z,6.50
2019-06-20T09:04:58.058Z,7.23
2019-06-20T09:07:28.394Z,6.47
2019-06-20T09:09:59.836Z,5.90
2019-06-20T09:12:30.358Z,6.77
2019-06-20T09:15:01.426Z,7.58
2019-06-20T09:17:31.617Z,7.10
2019-06-20T09:20:02.845Z,6.60
2019-06-20T09:22:33.417Z,6.20
2019-06-20T09:25:04.116Z,7.10
2019-06-20T09:27:34.333Z,6.57
2019-06-20T09:30:05.617Z,6.93
2019-06-20T09:32:36.263Z,6.53
2019-06-20T09:35:07.665Z,9.33
2019-06-20T09:37:37.979Z,7.40
2019-06-20T09:40:10.179Z,8.07
2019-06-20T09:42:40.495Z,7.10
2019-06-20T09:45:10.597Z,7.70
2019-06-20T09:47:40.925Z,7.07
2019-06-20T09:50:12.643Z,7.03
2019-06-20T09:52:42.995Z,7.97
2019-06-20T09:55:13.535Z,10.00
2019-06-20T09:57:43.945Z,8.03
2019-06-20T10:00:14.978Z,9.20
2019-06-20T10:02:47.166Z,6.80
2019-06-20T10:05:17.516Z,9.97
2019-06-20T10:07:48.725Z,9.40
2019-06-20T10:10:21.215Z,9.10
2019-06-20T10:12:51.860Z,7.87
2019-06-20T10:15:25.669Z,8.03
2019-06-20T10:17:56.213Z,8.10
2019-06-20T10:20:26.743Z,8.03
2019-06-20T10:22:57.462Z,8.30
2019-06-20T10:25:28.012Z,8.10
2019-06-20T10:27:58.625Z,7.80
2019-06-20T10:30:29.260Z,7.70
2019-06-20T10:32:59.676Z,6.93
2019-06-20T10:35:30.081Z,7.37
2019-06-20T10:38:01.570Z,7.13
2019-06-20T10:40:31.792Z,7.30
2019-06-20T10:43:02.003Z,6.67
2019-06-20T10:45:33.078Z,6.93
2019-06-20T10:48:03.827Z,8.93
2019-06-20T10:50:34.730Z,8.97
2019-06-20T10:53:05.265Z,8.77
2019-06-20T10:55:35.826Z,8.60
2019-06-20T10:58:06.201Z,8.50
2019-06-20T11:00:36.618Z,7.07
2019-06-20T11:03:08.013Z,8.03
2019-06-20T11:05:39.290Z,8.77
2019-06-20T11:08:10.287Z,10.17
2019-06-20T11:10:42.200Z,7.43
2019-06-20T11:13:12.796Z,15.35
2019-06-20T11:15:44.072Z,8.60
2019-06-20T11:18:14.387Z,8.95
2019-06-20T11:20:44.764Z,10.30
2019-06-20T11:23:15.050Z,8.80
2019-06-20T11:25:46.658Z,9.60
2019-06-20T11:28:17.175Z,7.67
2019-06-20T11:30:58.145Z,7.10
2019-06-20T11:33:19.394Z,7.65
2019-06-20T11:35:49.753Z,7.37
2019-06-20T11:38:20.442Z,6.73
2019-06-20T11:40:50.784Z,8.10
2019-06-20T11:43:21.243Z,9.43
2019-06-20T11:45:51.760Z,9.43
2019-06-20T11:48:22.001Z,8.10
2019-06-20T11:50:52.337Z,10.40
2019-06-20T11:53:23.091Z,9.33
2019-06-20T11:55:53.771Z,9.10
2019-06-20T11:58:24.219Z,8.33
2019-06-20T12:01:03.586Z,9.40
2019-06-20T12:03:26.530Z,9.77
2019-06-20T12:05:56.833Z,9.80
2019-06-20T12:08:27.026Z,7.60
2019-06-20T12:10:57.231Z,8.67
2019-06-20T12:13:27.502Z,8.30
2019-06-20T12:15:57.977Z,7.40
2019-06-20T12:18:28.134Z,7.10
2019-06-20T12:20:58.567Z,6.90
2019-06-20T12:23:29.121Z,7.13
2019-06-20T12:25:59.385Z,7.33
2019-06-20T12:28:29.961Z,6.97
2019-06-20T12:31:00.162Z,7.43
2019-06-20T12:33:30.387Z,7.80
2019-06-20T12:36:01.558Z,7.27
2019-06-20T12:38:31.946Z,6.83
2019-06-20T12:41:02.325Z,6.80
2019-06-20T12:43:33.597Z,6.27
2019-06-20T12:46:04.312Z,6.30
2019-06-20T12:48:34.498Z,6.27
2019-06-20T12:51:04.963Z,5.90
2019-06-20T12:53:35.253Z,5.50
2019-06-20T12:56:05.463Z,5.80
2019-06-20T12:58:35.796Z,7.10
2019-06-20T13:01:06.187Z,3.80
2019-06-20T13:03:38.569Z,4.30
2019-06-20T13:06:08.374Z,4.23
2019-06-20T13:08:39.025Z,4.40
2019-06-20T13:11:11.837Z,5.10
2019-06-20T13:13:42.303Z,5.63
2019-06-20T13:16:12.503Z,5.50
2019-06-20T13:18:44.546Z,6.67
2019-06-20T13:21:14.635Z,7.20
2019-06-20T13:23:45.063Z,6.40
2019-06-20T13:26:15.601Z,6.60
2019-06-20T13:29:02.845Z,6.10
2019-06-20T13:31:17.845Z,6.40
2019-06-20T13:33:48.941Z,6.20
2019-06-20T13:36:20.263Z,6.03
2019-06-20T13:38:50.496Z,6.00
2019-06-20T13:41:20.795Z,5.97
2019-06-20T13:43:51.273Z,6.23
2019-06-20T13:46:21.485Z,6.20
2019-06-20T13:48:51.617Z,6.00
2019-06-20T13:51:21.838Z,6.50
2019-06-20T13:53:52.259Z,6.93
2019-06-20T13:56:22.478Z,6.90
2019-06-20T13:58:54.076Z,6.70
2019-06-20T14:01:24.557Z,6.30
2019-06-20T14:03:54.784Z,6.53
2019-06-20T14:06:26.623Z,7.10
2019-06-20T14:08:56.985Z,6.30
2019-06-20T14:11:27.336Z,6.77
2019-06-20T14:13:57.547Z,6.20
2019-06-20T14:16:27.870Z,6.23
2019-06-20T14:18:58.942Z,6.33
2019-06-20T14:21:29.684Z,7.10
2019-06-20T14:23:59.999Z,8.23
2019-06-20T14:26:30.470Z,10.73
2019-06-20T14:29:02.649Z,6.50
2019-06-20T14:31:35.624Z,7.10
2019-06-20T14:34:09.424Z,5.90
2019-06-20T14:36:39.685Z,6.23
2019-06-20T14:39:09.998Z,4.40
2019-06-20T14:41:42.083Z,5.87
2019-06-20T14:44:13.747Z,3.87
2019-06-20T14:46:44.167Z,8.23
2019-06-20T14:49:14.693Z,8.03
2019-06-20T14:51:46.739Z,10.23
2019-06-20T14:54:19.669Z,10.45
2019-06-20T14:56:49.744Z,15.40
2019-06-20T14:59:20.099Z,13.03
2019-06-20T15:01:50.674Z,14.70
2019-06-20T15:04:21.093Z,12.97
2019-06-20T15:06:52.555Z,13.13
2019-06-20T15:09:22.695Z,14.20
2019-06-20T15:11:53.345Z,11.40
2019-06-20T15:14:23.659Z,12.50
2019-06-20T15:16:53.952Z,11.90
2019-06-20T15:19:24.106Z,9.40
2019-06-20T15:21:54.333Z,9.93
2019-06-20T15:24:24.774Z,8.17
2019-06-20T15:26:56.480Z,8.10
2019-06-20T15:29:27.126Z,7.50
2019-06-20T15:31:57.564Z,9.00
2019-06-20T15:34:28.012Z,8.90
2019-06-20T15:36:58.186Z,10.00
2019-06-20T15:39:28.819Z,9.90
2019-06-20T15:41:59.090Z,9.43
2019-06-20T15:44:29.358Z,9.40
2019-06-20T15:46:59.809Z,10.47
2019-06-20T15:49:30.029Z,9.70
2019-06-20T15:52:00.337Z,8.77
2019-06-20T15:54:30.765Z,10.20
2019-06-20T15:57:01.461Z,9.27
2019-06-20T15:59:32.726Z,10.17
2019-06-20T16:02:03.110Z,10.03
2019-06-20T16:04:33.301Z,9.40
2019-06-20T16:07:03.972Z,8.60
2019-06-20T16:09:34.175Z,9.50
2019-06-20T16:12:04.790Z,10.00
2019-06-20T16:14:35.070Z,9.83
2019-06-20T16:17:05.614Z,10.00
2019-06-20T16:19:35.872Z,8.57
2019-06-20T16:22:06.171Z,8.50
2019-06-20T16:24:36.847Z,9.97
2019-06-20T16:27:07.243Z,8.87
2019-06-20T16:29:37.531Z,9.80
2019-06-20T16:32:08.293Z,9.03
2019-06-20T16:34:38.490Z,9.30
2019-06-20T16:37:10.494Z,9.15
2019-06-20T16:39:41.132Z,9.77
2019-06-20T16:42:11.446Z,7.33
2019-06-20T16:44:42.985Z,6.77
2019-06-20T16:47:13.174Z,7.53
2019-06-20T16:49:43.425Z,6.23
2019-06-20T16:52:13.971Z,5.45
2019-06-20T16:54:44.162Z,4.90
2019-06-20T16:57:14.458Z,5.57
2019-06-20T16:59:47.723Z,4.33
2019-06-20T17:02:18.101Z,4.57
2019-06-20T17:04:48.320Z,4.50
2019-06-20T17:07:18.639Z,5.83
2019-06-20T17:09:48.987Z,5.47
2019-06-20T17:12:19.248Z,5.70
2019-06-20T17:14:49.515Z,5.77
2019-06-20T17:17:21.385Z,5.90
2019-06-20T17:19:51.637Z,5.93
2019-06-20T17:22:22.095Z,5.87
2019-06-20T17:24:52.375Z,5.80
2019-06-20T17:27:22.714Z,5.80
2019-06-20T17:29:53.448Z,5.50
2019-06-20T17:32:23.639Z,5.37
2019-06-20T17:34:54.373Z,5.83
2019-06-20T17:37:26.097Z,6.50
2019-06-20T17:39:56.347Z,5.63
2019-06-20T17:42:26.796Z,6.20
2019-06-20T17:44:57.177Z,6.23
2019-06-20T17:47:27.421Z,5.83
2019-06-20T17:49:57.662Z,6.00
2019-06-20T17:52:28.120Z,6.63
2019-06-20T17:54:58.316Z,5.70
2019-06-20T17:57:28.566Z,6.10
2019-06-20T17:59:58.764Z,6.17
2019-06-20T18:02:29.117Z,6.50
2019-06-20T18:04:59.579Z,6.73
2019-06-20T18:07:29.836Z,6.93
2019-06-20T18:10:00.210Z,6.63
2019-06-20T18:12:30.376Z,6.00
2019-06-20T18:15:00.697Z,6.80
2019-06-20T18:17:30.910Z,6.57
2019-06-20T18:20:01.226Z,6.73
2019-06-20T18:22:31.489Z,6.93
2019-06-20T18:25:04.301Z,7.42
2019-06-20T18:27:34.622Z,7.53
2019-06-20T18:30:06.013Z,7.37
2019-06-20T18:32:36.376Z,7.30
2019-06-20T18:35:07.616Z,8.47
2019-06-20T18:37:37.789Z,7.80
2019-06-20T18:40:08.692Z,8.63
2019-06-20T18:42:38.986Z,15.13
2019-06-20T18:45:10.173Z,9.25
2019-06-20T18:47:40.434Z,7.23
2019-06-20T18:50:11.138Z,8.03
2019-06-20T18:52:52.047Z,7.03
2019-06-20T18:55:15.587Z,7.70
2019-06-20T18:57:45.887Z,7.77
2019-06-20T19:00:16.747Z,7.28
2019-06-20T19:02:46.970Z,8.07
2019-06-20T19:05:17.950Z,7.80
2019-06-20T19:07:48.440Z,8.27
2019-06-20T19:10:23.015Z,7.90
2019-06-20T19:12:53.869Z,8.10
2019-06-20T19:15:25.003Z,8.33
2019-06-20T19:17:55.656Z,8.00
2019-06-20T19:20:25.974Z,8.90
2019-06-20T19:22:56.636Z,8.43
2019-06-20T19:25:26.890Z,8.77
2019-06-20T19:27:57.124Z,8.67
2019-06-20T19:30:48.123Z,7.90
2019-06-20T19:33:18.963Z,8.08
2019-06-20T19:35:49.331Z,8.33
2019-06-20T19:38:19.843Z,9.17
2019-06-20T19:40:50.840Z,9.03
2019-06-20T19:43:21.526Z,9.93
2019-06-20T19:45:51.712Z,9.80
2019-06-20T19:48:22.222Z,9.30
2019-06-20T19:50:52.698Z,9.90
2019-06-20T19:53:24.320Z,10.17
2019-06-20T19:55:54.900Z,11.33
2019-06-20T19:58:25.529Z,10.70
2019-06-20T20:00:56.279Z,9.37
2019-06-20T20:03:26.912Z,9.93
2019-06-20T20:05:58.360Z,10.20
2019-06-20T20:08:29.460Z,9.43
2019-06-20T20:11:00.019Z,9.97
2019-06-20T20:13:30.831Z,10.13
2019-06-20T20:16:01.371Z,9.33
2019-06-20T20:18:32.143Z,9.23
2019-06-20T20:21:02.358Z,9.77
2019-06-20T20:23:32.784Z,9.33
2019-06-20T20:26:04.104Z,9.85
2019-06-20T20:28:34.332Z,9.43
2019-06-20T20:31:04.813Z,9.37
2019-06-20T20:33:35.210Z,9.87
2019-06-20T20:36:05.510Z,9.60
2019-06-20T20:38:36.210Z,9.53
2019-06-20T20:41:06.418Z,8.60
2019-06-20T20:43:37.118Z,9.70
2019-06-20T20:46:07.315Z,9.83
2019-06-20T20:48:37.450Z,10.30
2019-06-20T20:51:08.035Z,8.23
2019-06-20T20:53:38.296Z,8.60
2019-06-20T20:56:08.544Z,9.67
2019-06-20T20:58:39.065Z,8.93
2019-06-20T21:01:28.567Z,9.40
2019-06-20T21:03:59.872Z,9.33
2019-06-20T21:06:30.458Z,9.83
2019-06-20T21:09:01.198Z,9.43
2019-06-20T21:11:33.267Z,10.70
2019-06-20T21:14:04.480Z,9.48
2019-06-20T21:16:35.077Z,9.77
2019-06-20T21:19:05.364Z,10.33
2019-06-20T21:21:35.585Z,9.20
2019-06-20T21:24:06.317Z,10.47
2019-06-20T21:26:49.101Z,9.70
2019-06-20T21:29:10.057Z,10.23
2019-06-20T21:31:40.285Z,9.63
2019-06-20T21:34:10.569Z,10.03
2019-06-20T21:36:40.950Z,10.00
2019-06-20T21:39:11.240Z,10.23
2019-06-20T21:41:41.431Z,10.07
2019-06-20T21:44:11.633Z,10.13
2019-06-20T21:46:42.224Z,10.43
2019-06-20T21:49:12.321Z,9.77
2019-06-20T21:51:44.605Z,10.53
2019-06-20T21:54:14.362Z,10.57
2019-06-20T21:56:44.568Z,10.20
2019-06-20T21:59:14.836Z,11.47
2019-06-20T22:01:48.233Z,10.60
2019-06-20T22:04:17.412Z,12.93
2019-06-20T22:06:54.154Z,11.30
2019-06-20T22:09:24.632Z,11.50
2019-06-20T22:11:54.836Z,11.53
2019-06-20T22:14:25.252Z,12.10
2019-06-20T22:16:55.412Z,12.63
2019-06-20T22:19:25.935Z,10.80
2019-06-20T22:21:56.054Z,12.00
2019-06-20T22:24:26.284Z,9.83
2019-06-20T22:26:56.691Z,12.10
2019-06-20T22:29:27.176Z,11.40
2019-06-20T22:31:57.389Z,11.67
2019-06-20T22:34:27.568Z,10.93
2019-06-20T22:36:58.963Z,10.57
2019-06-20T22:39:29.284Z,11.77
2019-06-20T22:41:59.749Z,11.27
2019-06-20T22:44:30.307Z,12.10
2019-06-20T22:47:00.542Z,10.90
2019-06-20T22:49:30.772Z,12.13
2019-06-20T22:52:01.033Z,12.33
2019-06-20T22:54:31.400Z,12.43
2019-06-20T22:57:01.687Z,11.53
2019-06-20T22:59:31.942Z,12.17
2019-06-20T23:02:02.325Z,11.73
2019-06-20T23:04:32.785Z,11.10
2019-06-20T23:07:03.701Z,10.80
2019-06-20T23:09:34.219Z,10.80
2019-06-20T23:12:04.721Z,10.07
2019-06-20T23:14:34.937Z,10.23
2019-06-20T23:17:05.531Z,10.17
2019-06-20T23:19:35.963Z,9.70
2019-06-20T23:22:06.437Z,11.20
2019-06-20T23:24:36.632Z,9.50
2019-06-20T23:27:06.855Z,9.50
2019-06-20T23:29:37.184Z,11.17
2019-06-20T23:32:08.631Z,10.63
2019-06-20T23:34:38.846Z,9.20
2019-06-20T23:37:13.116Z,9.20
2019-06-20T23:39:40.856Z,9.07
2019-06-20T23:42:11.114Z,10.15
2019-06-20T23:44:41.463Z,8.83
2019-06-20T23:47:11.681Z,8.80
2019-06-20T23:49:41.914Z,8.23
2019-06-20T23:52:16.520Z,9.83
2019-06-20T23:54:47.694Z,10.00
2019-06-20T23:57:17.857Z,8.10
2019-06-20T23:59:48.095Z,9.07
